Fure West — OZ2100 — position and weather

sailwx.info

Track history (hours):
 
Tides and Currents Weather Stations Pressure Air Temp Water Temp Dewpoint Dewpoint Depression Visibility Wind Speed Wind Dir Waves Ship Positions

Fure West

Last reported at 2014-Jul-23 01:33 UTC. Time now 2014-Jul-23 01:42 UTC.
Position N 54°57' E 017°59'.

Length 144 m; draft 6 m.

Type: Tanker. MMSI: 231775000.

Date/timePositionNaut miles runAvg speedWind from/ knotsBaromVisibWave heightAir tempDewpointWater temp
2014-Jul-23 01:33N 54°57' E 017°59'1110.7
2014-Jul-23 00:33N 54°55' E 017°41'1110.7
2014-Jul-22 23:33N 54°53' E 017°23'1110.5
2014-Jul-22 22:33N 54°50' E 017°05'1110.9
2014-Jul-22 21:33N 54°48' E 016°46'1111.0
2014-Jul-22 20:32N 54°46' E 016°27'1212.0
2014-Jul-22 19:33N 54°45' E 016°07'1211.9
2014-Jul-22 18:33N 54°43' E 015°47'1211.8
2014-Jul-22 17:33N 54°41' E 015°27'1211.6
2014-Jul-22 16:33N 54°39' E 015°07'1211.5
2014-Jul-22 15:33N 54°38' E 014°47'1211.6
2014-Jul-22 14:33N 54°36' E 014°27'1211.7
2014-Jul-22 13:33N 54°39' E 014°08'1212.2
2014-Jul-22 12:33N 54°42' E 013°48'1211.8
2014-Jul-22 11:33N 54°45' E 013°28'1111.5
2014-Jul-22 10:33N 54°45' E 013°08'1111.4
2014-Jul-22 09:33N 54°45' E 012°48'1111.4
2014-Jul-22 08:33N 54°40' E 012°31'1010.3
2014-Jul-22 07:33N 54°33' E 012°18'1111.3
2014-Jul-22 06:33N 54°24' E 012°04'1212.4
2014-Jul-22 05:33N 54°26' E 011°43'1212.4
2014-Jul-22 04:33N 54°31' E 011°24'1212.1
2014-Jul-22 03:33N 54°37' E 011°05'1211.2
2014-Jul-22 02:29N 54°46' E 010°52'2312.1
2014-Jul-22 00:33N 55°08' E 011°03'3511.6
2014-Jul-21 21:30N 55°43' E 010°47'1311.3
2014-Jul-21 20:21N 55°55' E 010°56'911.9
2014-Jul-21 19:33N 56°03' E 011°05'1211.8
2014-Jul-21 18:33N 56°12' E 011°17'1212.3
2014-Jul-21 17:33N 56°23' E 011°29'1312.7
2014-Jul-21 16:33N 56°34' E 011°40'1312.5
2014-Jul-21 15:29N 56°46' E 011°51'1212.4
2014-Jul-21 14:29N 56°58' E 011°44'1212.4
2014-Jul-21 13:33N 57°09' E 011°38'1312.8
2014-Jul-21 12:33N 57°21' E 011°36'1212.1
2014-Jul-21 11:33N 57°34' E 011°38'3 2.8
2014-Jul-21 10:31N 57°36' E 011°41'0 0.1
2014-Jul-21 09:31N 57°36' E 011°41'2 1.9
2014-Jul-21 08:33N 57°35' E 011°38'9 9.2
2014-Jul-21 07:33N 57°38' E 011°22'1414.3
2014-Jul-21 06:34N 57°45' E 010°58'1312.8
2014-Jul-21 05:33N 57°47' E 010°34'8 7.9
2014-Jul-21 04:34N 57°45' E 010°20'7 7.2
2014-Jul-21 03:33N 57°44' E 010°07'10 7.3
2014-Jul-21 02:08N 57°40' E 009°48'4 7.2
2014-Jul-21 01:32N 57°39' E 009°41'7 7.2
2014-Jul-21 00:33N 57°37' E 009°28'128 7.1
2014-Jul-20 06:30N 55°57' E 006°60'6 6.6
2014-Jul-20 05:33N 55°52' E 006°54'7 6.6
2014-Jul-20 04:33N 55°46' E 006°48'7 6.5
2014-Jul-20 03:33N 55°41' E 006°42'7 6.7
2014-Jul-20 02:33N 55°35' E 006°36'7 6.6
2014-Jul-20 01:31N 55°29' E 006°29'7 6.7
2014-Jul-20 00:27N 55°23' E 006°23'55 6.6
2014-Jul-19 16:05N 54°38' E 005°26'3 5.6
2014-Jul-19 15:33N 54°36' E 005°23'5 5.1
2014-Jul-19 14:33N 54°31' E 005°25'6 5.7
2014-Jul-19 13:33N 54°26' E 005°21'6 6.4
2014-Jul-19 12:33N 54°23' E 005°11'8 5.6
2014-Jul-19 11:04N 54°31' E 005°09'4 6.8
2014-Jul-19 10:29N 54°31' E 005°16'5 5.8
2014-Jul-19 09:33N 54°28' E 005°24'7 7.4
2014-Jul-19 08:33N 54°22' E 005°16'7 7.2
2014-Jul-19 07:33N 54°16' E 005°09'6 6.3
2014-Jul-19 06:33N 54°11' E 005°03'6 6.3
2014-Jul-19 05:33N 54°06' E 004°57'7 7.0
2014-Jul-19 04:33N 53°59' E 004°55'7 7.0
2014-Jul-19 03:33N 53°52' E 004°53'7 7.1
2014-Jul-19 02:33N 53°45' E 004°52'7 7.3
2014-Jul-19 01:34N 53°38' E 004°50'8 7.6
2014-Jul-19 00:33N 53°30' E 004°47'7 7.4
2014-Jul-18 23:33N 53°24' E 004°41'9 8.9
2014-Jul-18 22:33N 53°16' E 004°36'10 9.5
2014-Jul-18 21:33N 53°07' E 004°29'9 9.4
2014-Jul-18 20:33N 52°59' E 004°21'1110.6
2014-Jul-18 19:33N 52°50' E 004°13'9 9.2
2014-Jul-18 18:32N 52°43' E 004°02'9 8.9
2014-Jul-18 17:33N 52°36' E 003°52'11 8.2
2014-Jul-18 16:15N 52°28' E 003°40'6 7.8
2014-Jul-18 15:29N 52°23' E 003°37'7 7.5
2014-Jul-18 14:33N 52°16' E 003°32'10 8.2
2014-Jul-18 13:17N 52°07' E 003°26'8 9.5
2014-Jul-18 12:30N 51°59' E 003°23'1111.2
2014-Jul-18 11:32N 51°49' E 003°22'2 2.1
2014-Jul-18 10:32N 51°47' E 003°20'0 0.0
2014-Jul-18 09:32N 51°47' E 003°20'0 0.1
2014-Jul-18 08:29N 51°47' E 003°20'0 0.0
2014-Jul-18 07:32N 51°47' E 003°20'0 0.0
2014-Jul-18 06:29N 51°47' E 003°20'0 0.0
2014-Jul-18 05:32N 51°47' E 003°20'0 0.0
2014-Jul-18 04:32N 51°47' E 003°20'0 0.2
2014-Jul-18 03:32N 51°47' E 003°20'0 0.0
2014-Jul-18 02:29N 51°47' E 003°20'0 0.0
2014-Jul-18 01:29N 51°47' E 003°20'0 0.0
2014-Jul-18 00:29N 51°47' E 003°20'0 0.0
2014-Jul-17 23:26N 51°47' E 003°20'0 0.0
2014-Jul-17 22:32N 51°47' E 003°20'0 0.0
2014-Jul-17 21:32N 51°47' E 003°20'0 0.1
2014-Jul-17 20:32N 51°47' E 003°20'0 0.1
2014-Jul-17 19:32N 51°47' E 003°20'0 0.0
2014-Jul-17 18:32N 51°47' E 003°20'0 0.0
2014-Jul-17 17:32N 51°47' E 003°20'0 0.0
2014-Jul-17 16:32N 51°47' E 003°20'0 0.2
2014-Jul-17 15:32N 51°47' E 003°20'0 0.0
2014-Jul-17 14:32N 51°47' E 003°20'0 0.0
2014-Jul-17 13:29N 51°47' E 003°20'6 6.5
2014-Jul-17 12:34N 51°41' E 003°17'1111.4
2014-Jul-17 11:34N 51°31' E 003°26'1111.1
2014-Jul-17 10:34N 51°26' E 003°42'1111.0
2014-Jul-17 09:34N 51°26' E 003°59'1212.4
2014-Jul-17 08:34N 51°20' E 004°16'4 3.9
2014-Jul-17 07:34N 51°17' E 004°20'1 0.7
2014-Jul-17 06:32N 51°16' E 004°21'0 0.0
2014-Jul-17 05:32N 51°16' E 004°21'0 0.0
2014-Jul-17 04:32N 51°16' E 004°21'0 0.0
2014-Jul-17 03:32N 51°16' E 004°21'0 0.0
2014-Jul-17 02:32N 51°16' E 004°21'0 0.0
2014-Jul-17 01:32N 51°16' E 004°21'0 0.0
2014-Jul-17 00:32N 51°16' E 004°21'0 0.0
2014-Jul-16 23:29N 51°16' E 004°21'0 0.0
2014-Jul-16 22:32N 51°16' E 004°21'0 0.0
2014-Jul-16 21:32N 51°16' E 004°21'0 0.0
2014-Jul-16 20:32N 51°16' E 004°21'0 0.0
2014-Jul-16 19:32N 51°16' E 004°21'0 0.0
2014-Jul-16 18:32N 51°16' E 004°21'0 0.0
2014-Jul-16 17:32N 51°16' E 004°21'0 0.0
2014-Jul-16 16:32N 51°16' E 004°21'0 0.0
2014-Jul-16 15:26N 51°16' E 004°21'0 0.0
2014-Jul-16 14:32N 51°16' E 004°21'0 0.0
2014-Jul-16 13:32N 51°16' E 004°21'0 0.0
2014-Jul-16 12:26N 51°16' E 004°21'0 0.0
2014-Jul-16 11:32N 51°16' E 004°21'0 0.0
2014-Jul-16 10:32N 51°16' E 004°21'0 0.0
2014-Jul-16 09:32N 51°16' E 004°21'0 0.0
2014-Jul-16 08:32N 51°16' E 004°21'0 0.0
2014-Jul-16 07:32N 51°16' E 004°21'0 0.0
2014-Jul-16 06:32N 51°16' E 004°21'0 0.0
2014-Jul-16 05:32N 51°16' E 004°21'0 0.0
2014-Jul-16 04:32N 51°16' E 004°21'0 0.0
2014-Jul-16 03:32N 51°16' E 004°21'0 0.0
2014-Jul-16 02:32N 51°16' E 004°21'0 0.0
2014-Jul-16 01:29N 51°16' E 004°21'0 0.0
2014-Jul-16 00:32N 51°16' E 004°21'0 0.0
2014-Jul-15 23:32N 51°16' E 004°21'0 0.0
2014-Jul-15 22:32N 51°16' E 004°21'0 0.0
2014-Jul-15 21:32N 51°16' E 004°21'0 0.0
2014-Jul-15 20:32N 51°16' E 004°21'0 0.0
2014-Jul-15 19:32N 51°16' E 004°21'0 0.0
2014-Jul-15 18:32N 51°16' E 004°21'0 0.0
2014-Jul-15 17:32N 51°16' E 004°21'0 0.0
2014-Jul-15 16:32N 51°16' E 004°21'0 0.0
2014-Jul-15 15:32N 51°16' E 004°21'0 0.0
2014-Jul-15 14:32N 51°16' E 004°21'0 0.0
2014-Jul-15 13:32N 51°16' E 004°21'0 0.0
2014-Jul-15 12:32N 51°16' E 004°21'0 0.0
2014-Jul-15 11:32N 51°16' E 004°21'0 0.0
2014-Jul-15 10:29N 51°16' E 004°21'0 0.0
2014-Jul-15 09:32N 51°16' E 004°21'0 0.0
2014-Jul-15 08:32N 51°16' E 004°21'0 0.0
2014-Jul-15 07:32N 51°16' E 004°21'0 0.0
2014-Jul-15 06:29N 51°16' E 004°21'0 0.0
2014-Jul-15 05:32N 51°16' E 004°21'0 0.0
2014-Jul-15 04:32N 51°16' E 004°21'0 0.0
2014-Jul-15 03:32N 51°16' E 004°21'0 0.0
2014-Jul-15 02:32N 51°16' E 004°21'0 0.0
2014-Jul-15 01:32N 51°16' E 004°21'0 0.0
2014-Jul-15 00:32N 51°16' E 004°21'0 0.0
2014-Jul-14 23:32N 51°16' E 004°21'0 0.0
2014-Jul-14 22:32N 51°16' E 004°21'0 0.0
2014-Jul-14 21:32N 51°16' E 004°21'0 0.0
2014-Jul-14 20:32N 51°16' E 004°21'0 0.0
2014-Jul-14 19:32N 51°16' E 004°21'0 0.0
2014-Jul-14 18:23N 51°16' E 004°21'0 0.0
2014-Jul-14 17:32N 51°16' E 004°21'0 0.0
2014-Jul-14 16:32N 51°16' E 004°21'0 0.0
2014-Jul-14 15:32N 51°16' E 004°21'0 0.0
2014-Jul-14 14:32N 51°16' E 004°21'0 0.0
2014-Jul-14 13:32N 51°16' E 004°21'0 0.0
2014-Jul-14 12:29N 51°16' E 004°21'0 0.0
2014-Jul-14 11:29N 51°16' E 004°21'0 0.0
2014-Jul-14 10:32N 51°16' E 004°21'0 0.0
2014-Jul-14 09:29N 51°16' E 004°21'0 0.0
2014-Jul-14 08:23N 51°16' E 004°21'0 0.0
2014-Jul-14 07:29N 51°16' E 004°21'0 0.0
2014-Jul-14 06:32N 51°16' E 004°21'0 0.0
2014-Jul-14 05:29N 51°16' E 004°21'0 0.0
2014-Jul-14 04:32N 51°16' E 004°21'0 0.0
2014-Jul-14 03:32N 51°16' E 004°21'0 0.0
2014-Jul-14 02:32N 51°16' E 004°21'0 0.0
2014-Jul-14 01:32N 51°16' E 004°21'0 0.0
2014-Jul-14 00:32N 51°16' E 004°21'0 0.0
2014-Jul-13 23:32N 51°16' E 004°21'0 0.0
2014-Jul-13 22:29N 51°16' E 004°21'0 0.0
2014-Jul-13 21:32N 51°16' E 004°21'0 0.0
2014-Jul-13 20:29N 51°16' E 004°21'0 0.0
2014-Jul-13 19:32N 51°16' E 004°21'0 0.0
2014-Jul-13 18:32N 51°16' E 004°21'0 0.0
2014-Jul-13 17:32N 51°16' E 004°21'0 0.0
2014-Jul-13 16:32N 51°16' E 004°21'0 0.0
2014-Jul-13 15:32N 51°16' E 004°21'0 0.0
2014-Jul-13 14:29N 51°16' E 004°21'0 0.0
2014-Jul-13 13:23N 51°16' E 004°21'0 0.0
2014-Jul-13 12:32N 51°16' E 004°21'0 0.0
2014-Jul-13 11:32N 51°16' E 004°21'1 1.2
2014-Jul-13 10:34N 51°17' E 004°20'4 3.8
2014-Jul-13 09:34N 51°21' E 004°17'0 0.2
2014-Jul-13 08:33N 51°21' E 004°17'5 5.2
2014-Jul-13 07:33N 51°23' E 004°09'7 7.5
2014-Jul-13 06:33N 51°25' E 003°58'8 8.1
2014-Jul-13 05:33N 51°22' E 003°46'8 8.0
2014-Jul-13 04:33N 51°26' E 003°35'10 9.5
2014-Jul-13 03:33N 51°24' E 003°20'1312.1
2014-Jul-13 02:31N 51°23' E 002°60'  
Track history (hours):
 
Tides and Currents Weather Stations Pressure Air Temp Water Temp Dewpoint Dewpoint Depression Visibility Wind Speed Wind Dir Waves Ship Positions

Fure West

Last reported at 2014-Jul-23 01:33 UTC. Time now 2014-Jul-23 01:42 UTC.
Position N 54°57' E 017°59'.

Length 144 m; draft 6 m.

Type: Tanker. MMSI: 231775000.

Date/timePositionNaut miles runAvg speedWind from/ knotsBaromVisibWave heightAir tempDewpointWater temp
2014-Jul-23 01:33N 54°57' E 017°59'1110.7
2014-Jul-23 00:33N 54°55' E 017°41'1110.7
2014-Jul-22 23:33N 54°53' E 017°23'1110.5
2014-Jul-22 22:33N 54°50' E 017°05'1110.9
2014-Jul-22 21:33N 54°48' E 016°46'1111.0
2014-Jul-22 20:32N 54°46' E 016°27'1212.0
2014-Jul-22 19:33N 54°45' E 016°07'1211.9
2014-Jul-22 18:33N 54°43' E 015°47'1211.8
2014-Jul-22 17:33N 54°41' E 015°27'1211.6
2014-Jul-22 16:33N 54°39' E 015°07'1211.5
2014-Jul-22 15:33N 54°38' E 014°47'1211.6
2014-Jul-22 14:33N 54°36' E 014°27'1211.7
2014-Jul-22 13:33N 54°39' E 014°08'1212.2
2014-Jul-22 12:33N 54°42' E 013°48'1211.8
2014-Jul-22 11:33N 54°45' E 013°28'1111.5
2014-Jul-22 10:33N 54°45' E 013°08'1111.4
2014-Jul-22 09:33N 54°45' E 012°48'1111.4
2014-Jul-22 08:33N 54°40' E 012°31'1010.3
2014-Jul-22 07:33N 54°33' E 012°18'1111.3
2014-Jul-22 06:33N 54°24' E 012°04'1212.4
2014-Jul-22 05:33N 54°26' E 011°43'1212.4
2014-Jul-22 04:33N 54°31' E 011°24'1212.1
2014-Jul-22 03:33N 54°37' E 011°05'1211.2
2014-Jul-22 02:29N 54°46' E 010°52'2312.1
2014-Jul-22 00:33N 55°08' E 011°03'3511.6
2014-Jul-21 21:30N 55°43' E 010°47'1311.3
2014-Jul-21 20:21N 55°55' E 010°56'911.9
2014-Jul-21 19:33N 56°03' E 011°05'1211.8
2014-Jul-21 18:33N 56°12' E 011°17'1212.3
2014-Jul-21 17:33N 56°23' E 011°29'1312.7
2014-Jul-21 16:33N 56°34' E 011°40'1312.5
2014-Jul-21 15:29N 56°46' E 011°51'1212.4
2014-Jul-21 14:29N 56°58' E 011°44'1212.4
2014-Jul-21 13:33N 57°09' E 011°38'1312.8
2014-Jul-21 12:33N 57°21' E 011°36'1212.1
2014-Jul-21 11:33N 57°34' E 011°38'3 2.8
2014-Jul-21 10:31N 57°36' E 011°41'0 0.1
2014-Jul-21 09:31N 57°36' E 011°41'2 1.9
2014-Jul-21 08:33N 57°35' E 011°38'9 9.2
2014-Jul-21 07:33N 57°38' E 011°22'1414.3
2014-Jul-21 06:34N 57°45' E 010°58'1312.8
2014-Jul-21 05:33N 57°47' E 010°34'8 7.9
2014-Jul-21 04:34N 57°45' E 010°20'7 7.2
2014-Jul-21 03:33N 57°44' E 010°07'10 7.3
2014-Jul-21 02:08N 57°40' E 009°48'4 7.2
2014-Jul-21 01:32N 57°39' E 009°41'7 7.2
2014-Jul-21 00:33N 57°37' E 009°28'128 7.1
2014-Jul-20 06:30N 55°57' E 006°60'6 6.6
2014-Jul-20 05:33N 55°52' E 006°54'7 6.6
2014-Jul-20 04:33N 55°46' E 006°48'7 6.5
2014-Jul-20 03:33N 55°41' E 006°42'7 6.7
2014-Jul-20 02:33N 55°35' E 006°36'7 6.6
2014-Jul-20 01:31N 55°29' E 006°29'7 6.7
2014-Jul-20 00:27N 55°23' E 006°23'55 6.6
2014-Jul-19 16:05N 54°38' E 005°26'3 5.6
2014-Jul-19 15:33N 54°36' E 005°23'5 5.1
2014-Jul-19 14:33N 54°31' E 005°25'6 5.7
2014-Jul-19 13:33N 54°26' E 005°21'6 6.4
2014-Jul-19 12:33N 54°23' E 005°11'8 5.6
2014-Jul-19 11:04N 54°31' E 005°09'4 6.8
2014-Jul-19 10:29N 54°31' E 005°16'5 5.8
2014-Jul-19 09:33N 54°28' E 005°24'7 7.4
2014-Jul-19 08:33N 54°22' E 005°16'7 7.2
2014-Jul-19 07:33N 54°16' E 005°09'6 6.3
2014-Jul-19 06:33N 54°11' E 005°03'6 6.3
2014-Jul-19 05:33N 54°06' E 004°57'7 7.0
2014-Jul-19 04:33N 53°59' E 004°55'7 7.0
2014-Jul-19 03:33N 53°52' E 004°53'7 7.1
2014-Jul-19 02:33N 53°45' E 004°52'7 7.3
2014-Jul-19 01:34N 53°38' E 004°50'8 7.6
2014-Jul-19 00:33N 53°30' E 004°47'7 7.4
2014-Jul-18 23:33N 53°24' E 004°41'9 8.9
2014-Jul-18 22:33N 53°16' E 004°36'10 9.5
2014-Jul-18 21:33N 53°07' E 004°29'9 9.4
2014-Jul-18 20:33N 52°59' E 004°21'1110.6
2014-Jul-18 19:33N 52°50' E 004°13'9 9.2
2014-Jul-18 18:32N 52°43' E 004°02'9 8.9
2014-Jul-18 17:33N 52°36' E 003°52'11 8.2
2014-Jul-18 16:15N 52°28' E 003°40'6 7.8
2014-Jul-18 15:29N 52°23' E 003°37'7 7.5
2014-Jul-18 14:33N 52°16' E 003°32'10 8.2
2014-Jul-18 13:17N 52°07' E 003°26'8 9.5
2014-Jul-18 12:30N 51°59' E 003°23'1111.2
2014-Jul-18 11:32N 51°49' E 003°22'2 2.1
2014-Jul-18 10:32N 51°47' E 003°20'0 0.0
2014-Jul-18 09:32N 51°47' E 003°20'0 0.1
2014-Jul-18 08:29N 51°47' E 003°20'0 0.0
2014-Jul-18 07:32N 51°47' E 003°20'0 0.0
2014-Jul-18 06:29N 51°47' E 003°20'0 0.0
2014-Jul-18 05:32N 51°47' E 003°20'0 0.0
2014-Jul-18 04:32N 51°47' E 003°20'0 0.2
2014-Jul-18 03:32N 51°47' E 003°20'0 0.0
2014-Jul-18 02:29N 51°47' E 003°20'0 0.0
2014-Jul-18 01:29N 51°47' E 003°20'0 0.0
2014-Jul-18 00:29N 51°47' E 003°20'0 0.0
2014-Jul-17 23:26N 51°47' E 003°20'0 0.0
2014-Jul-17 22:32N 51°47' E 003°20'0 0.0
2014-Jul-17 21:32N 51°47' E 003°20'0 0.1
2014-Jul-17 20:32N 51°47' E 003°20'0 0.1
2014-Jul-17 19:32N 51°47' E 003°20'0 0.0
2014-Jul-17 18:32N 51°47' E 003°20'0 0.0
2014-Jul-17 17:32N 51°47' E 003°20'0 0.0
2014-Jul-17 16:32N 51°47' E 003°20'0 0.2
2014-Jul-17 15:32N 51°47' E 003°20'0 0.0
2014-Jul-17 14:32N 51°47' E 003°20'0 0.0
2014-Jul-17 13:29N 51°47' E 003°20'6 6.5
2014-Jul-17 12:34N 51°41' E 003°17'1111.4
2014-Jul-17 11:34N 51°31' E 003°26'1111.1
2014-Jul-17 10:34N 51°26' E 003°42'1111.0
2014-Jul-17 09:34N 51°26' E 003°59'1212.4
2014-Jul-17 08:34N 51°20' E 004°16'4 3.9
2014-Jul-17 07:34N 51°17' E 004°20'1 0.7
2014-Jul-17 06:32N 51°16' E 004°21'0 0.0
2014-Jul-17 05:32N 51°16' E 004°21'0 0.0
2014-Jul-17 04:32N 51°16' E 004°21'0 0.0
2014-Jul-17 03:32N 51°16' E 004°21'0 0.0
2014-Jul-17 02:32N 51°16' E 004°21'0 0.0
2014-Jul-17 01:32N 51°16' E 004°21'0 0.0
2014-Jul-17 00:32N 51°16' E 004°21'0 0.0
2014-Jul-16 23:29N 51°16' E 004°21'0 0.0
2014-Jul-16 22:32N 51°16' E 004°21'0 0.0
2014-Jul-16 21:32N 51°16' E 004°21'0 0.0
2014-Jul-16 20:32N 51°16' E 004°21'0 0.0
2014-Jul-16 19:32N 51°16' E 004°21'0 0.0
2014-Jul-16 18:32N 51°16' E 004°21'0 0.0
2014-Jul-16 17:32N 51°16' E 004°21'0 0.0
2014-Jul-16 16:32N 51°16' E 004°21'0 0.0
2014-Jul-16 15:26N 51°16' E 004°21'0 0.0
2014-Jul-16 14:32N 51°16' E 004°21'0 0.0
2014-Jul-16 13:32N 51°16' E 004°21'0 0.0
2014-Jul-16 12:26N 51°16' E 004°21'0 0.0
2014-Jul-16 11:32N 51°16' E 004°21'0 0.0
2014-Jul-16 10:32N 51°16' E 004°21'0 0.0
2014-Jul-16 09:32N 51°16' E 004°21'0 0.0
2014-Jul-16 08:32N 51°16' E 004°21'0 0.0
2014-Jul-16 07:32N 51°16' E 004°21'0 0.0
2014-Jul-16 06:32N 51°16' E 004°21'0 0.0
2014-Jul-16 05:32N 51°16' E 004°21'0 0.0
2014-Jul-16 04:32N 51°16' E 004°21'0 0.0
2014-Jul-16 03:32N 51°16' E 004°21'0 0.0
2014-Jul-16 02:32N 51°16' E 004°21'0 0.0
2014-Jul-16 01:29N 51°16' E 004°21'0 0.0
2014-Jul-16 00:32N 51°16' E 004°21'0 0.0
2014-Jul-15 23:32N 51°16' E 004°21'0 0.0
2014-Jul-15 22:32N 51°16' E 004°21'0 0.0
2014-Jul-15 21:32N 51°16' E 004°21'0 0.0
2014-Jul-15 20:32N 51°16' E 004°21'0 0.0
2014-Jul-15 19:32N 51°16' E 004°21'0 0.0
2014-Jul-15 18:32N 51°16' E 004°21'0 0.0
2014-Jul-15 17:32N 51°16' E 004°21'0 0.0
2014-Jul-15 16:32N 51°16' E 004°21'0 0.0
2014-Jul-15 15:32N 51°16' E 004°21'0 0.0
2014-Jul-15 14:32N 51°16' E 004°21'0 0.0
2014-Jul-15 13:32N 51°16' E 004°21'0 0.0
2014-Jul-15 12:32N 51°16' E 004°21'0 0.0
2014-Jul-15 11:32N 51°16' E 004°21'0 0.0
2014-Jul-15 10:29N 51°16' E 004°21'0 0.0
2014-Jul-15 09:32N 51°16' E 004°21'0 0.0
2014-Jul-15 08:32N 51°16' E 004°21'0 0.0
2014-Jul-15 07:32N 51°16' E 004°21'0 0.0
2014-Jul-15 06:29N 51°16' E 004°21'0 0.0
2014-Jul-15 05:32N 51°16' E 004°21'0 0.0
2014-Jul-15 04:32N 51°16' E 004°21'0 0.0
2014-Jul-15 03:32N 51°16' E 004°21'0 0.0
2014-Jul-15 02:32N 51°16' E 004°21'0 0.0
2014-Jul-15 01:32N 51°16' E 004°21'0 0.0
2014-Jul-15 00:32N 51°16' E 004°21'0 0.0
2014-Jul-14 23:32N 51°16' E 004°21'0 0.0
2014-Jul-14 22:32N 51°16' E 004°21'0 0.0
2014-Jul-14 21:32N 51°16' E 004°21'0 0.0
2014-Jul-14 20:32N 51°16' E 004°21'0 0.0
2014-Jul-14 19:32N 51°16' E 004°21'0 0.0
2014-Jul-14 18:23N 51°16' E 004°21'0 0.0
2014-Jul-14 17:32N 51°16' E 004°21'0 0.0
2014-Jul-14 16:32N 51°16' E 004°21'0 0.0
2014-Jul-14 15:32N 51°16' E 004°21'0 0.0
2014-Jul-14 14:32N 51°16' E 004°21'0 0.0
2014-Jul-14 13:32N 51°16' E 004°21'0 0.0
2014-Jul-14 12:29N 51°16' E 004°21'0 0.0
2014-Jul-14 11:29N 51°16' E 004°21'0 0.0
2014-Jul-14 10:32N 51°16' E 004°21'0 0.0
2014-Jul-14 09:29N 51°16' E 004°21'0 0.0
2014-Jul-14 08:23N 51°16' E 004°21'0 0.0
2014-Jul-14 07:29N 51°16' E 004°21'0 0.0
2014-Jul-14 06:32N 51°16' E 004°21'0 0.0
2014-Jul-14 05:29N 51°16' E 004°21'0 0.0
2014-Jul-14 04:32N 51°16' E 004°21'0 0.0
2014-Jul-14 03:32N 51°16' E 004°21'0 0.0
2014-Jul-14 02:32N 51°16' E 004°21'0 0.0
2014-Jul-14 01:32N 51°16' E 004°21'0 0.0
2014-Jul-14 00:32N 51°16' E 004°21'0 0.0
2014-Jul-13 23:32N 51°16' E 004°21'0 0.0
2014-Jul-13 22:29N 51°16' E 004°21'0 0.0
2014-Jul-13 21:32N 51°16' E 004°21'0 0.0
2014-Jul-13 20:29N 51°16' E 004°21'0 0.0
2014-Jul-13 19:32N 51°16' E 004°21'0 0.0
2014-Jul-13 18:32N 51°16' E 004°21'0 0.0
2014-Jul-13 17:32N 51°16' E 004°21'0 0.0
2014-Jul-13 16:32N 51°16' E 004°21'0 0.0
2014-Jul-13 15:32N 51°16' E 004°21'0 0.0
2014-Jul-13 14:29N 51°16' E 004°21'0 0.0
2014-Jul-13 13:23N 51°16' E 004°21'0 0.0
2014-Jul-13 12:32N 51°16' E 004°21'0 0.0
2014-Jul-13 11:32N 51°16' E 004°21'1 1.2
2014-Jul-13 10:34N 51°17' E 004°20'4 3.8
2014-Jul-13 09:34N 51°21' E 004°17'0 0.2
2014-Jul-13 08:33N 51°21' E 004°17'5 5.2
2014-Jul-13 07:33N 51°23' E 004°09'7 7.5
2014-Jul-13 06:33N 51°25' E 003°58'8 8.1
2014-Jul-13 05:33N 51°22' E 003°46'8 8.0
2014-Jul-13 04:33N 51°26' E 003°35'10 9.5
2014-Jul-13 03:33N 51°24' E 003°20'1312.1
2014-Jul-13 02:31N 51°23' E 002°60'  

Dump ship's entire track history